Hempstead, New York
Current Conditions -  °F | °C
As of 2:51 AM on Saturday 29 Nov 2014 (Local Time) from KJFK Reporting Station
Scattered Clouds Scattered Clouds  
Wind Chill: 21°   Ceiling: Unl
Heat Index: 28°   Visibility: 10mi
Dew Point: 11°   Wind: 7mph
Humidity: 49%   Direction: 300°WNW
Pressure: 30.33"   Gusts: NA
Location:  40.71°N, 73.62°W
Report Text: KJFK 290751Z 30006KT 10SM FEW100 SCT250 M02/M12 A3033 RMK AO2 SLP269 T10221117
Loading
Personal Weather Stations






























Interactive Weather Map New forecast layout! Learn more

10-Day Weather Forecast

Advertisements
Track Severe Weather on mobile